Eastman, Canada
Current Conditions -  °F | °C
As of 2:15 PM on Thursday 23 Oct 2014 (Local Time) from KEFK Reporting Station
Moderate Rain Moderate Rain  
Wind Chill: 36°   Ceiling: 700
Heat Index: 43°   Visibility: 5mi
Dew Point: 42°   Wind: 15mph
Humidity: 96%   Direction: 360°N
Pressure: 29.92"   Gusts: 18mph
Location:  45.3°N, 72.32°W
Report Text: KEFK 231815Z AUTO 36013G16KT 5SM RA BKN007 OVC014 06/06 A2992 RMK AO2 T00630057
Loading
Personal Weather Stations






























Interactive Weather Map New forecast layout! Learn more

10-Day Weather Forecast

Advertisements
Track Severe Weather on mobile